createdAt,value
2023-05-09T00:01:32.198Z,966.2
2023-05-09T00:06:33.984Z,966.13
2023-05-09T00:11:35.737Z,966.12
2023-05-09T00:16:37.220Z,966.12
2023-05-09T00:21:38.400Z,966.1
2023-05-09T00:26:40.502Z,966.13
2023-05-09T00:31:41.866Z,966.04
2023-05-09T00:36:43.685Z,966.01
2023-05-09T00:41:44.983Z,966.01
2023-05-09T00:46:46.193Z,965.98
2023-05-09T00:51:48.274Z,966.03
2023-05-09T00:56:49.556Z,965.96
2023-05-09T01:01:51.805Z,965.89
2023-05-09T01:07:01.798Z,965.84
2023-05-09T01:11:55.583Z,965.76
2023-05-09T01:12:01.827Z,965.75
2023-05-09T01:17:03.218Z,965.68
2023-05-09T01:22:04.529Z,965.64
2023-05-09T01:27:06.327Z,965.51
2023-05-09T01:32:07.852Z,965.58
2023-05-09T01:37:09.728Z,965.58
2023-05-09T01:42:11.083Z,965.56
2023-05-09T01:47:12.664Z,965.53
2023-05-09T01:52:14.227Z,965.57
2023-05-09T01:57:15.928Z,965.57
2023-05-09T02:02:17.331Z,965.51
2023-05-09T02:07:18.640Z,965.49
2023-05-09T02:12:19.840Z,965.38
2023-05-09T02:17:22.022Z,965.36
2023-05-09T02:22:23.461Z,965.36
2023-05-09T02:27:25.077Z,965.33
2023-05-09T02:32:26.797Z,965.35
2023-05-09T02:37:28.104Z,965.35
2023-05-09T02:42:29.707Z,965.31
2023-05-09T02:47:31.053Z,965.31
2023-05-09T02:52:32.300Z,965.32
2023-05-09T02:57:34.099Z,965.37
2023-05-09T03:02:35.907Z,965.27
2023-05-09T03:07:37.827Z,965.26
2023-05-09T03:12:39.115Z,965.3
2023-05-09T03:17:40.852Z,965.26
2023-05-09T03:22:42.175Z,965.21
2023-05-09T03:27:43.891Z,965.19
2023-05-09T03:32:46.030Z,965.1
2023-05-09T03:37:47.500Z,965.06
2023-05-09T03:42:49.263Z,965.02
2023-05-09T03:47:50.921Z,965.02
2023-05-09T03:52:52.764Z,965.06
2023-05-09T03:57:54.425Z,965.08
2023-05-09T04:02:55.994Z,965.11
2023-05-09T04:07:57.341Z,965.2
2023-05-09T04:12:58.629Z,965.18
2023-05-09T04:18:00.635Z,965.13
2023-05-09T04:23:01.864Z,965.21
2023-05-09T04:28:03.568Z,965.2
2023-05-09T04:33:05.403Z,965.19
2023-05-09T04:38:06.757Z,965.17
2023-05-09T04:43:08.340Z,965.17
2023-05-09T04:48:09.531Z,965.06
2023-05-09T04:53:11.424Z,965.01
2023-05-09T04:58:12.665Z,965.03
2023-05-09T05:03:13.989Z,965.06
2023-05-09T05:08:16.127Z,965.07
2023-05-09T05:13:17.425Z,964.98
2023-05-09T05:18:18.797Z,965.02
2023-05-09T05:23:20.364Z,965.02
2023-05-09T05:28:21.993Z,965
2023-05-09T05:43:26.704Z,965.08
2023-05-09T05:53:30.865Z,965.02
2023-05-09T06:08:34.134Z,964.85
2023-05-09T06:58:49.695Z,964.33
2023-05-09T07:44:04.106Z,963.92
2023-05-09T08:39:22.574Z,963.37
2023-05-09T08:44:24.463Z,963.35
2023-05-09T08:49:25.784Z,963.27
2023-05-09T08:54:27.114Z,963.33
2023-05-09T08:59:29.198Z,963.24
2023-05-09T09:04:30.704Z,963.17
2023-05-09T09:09:32.004Z,963.05
2023-05-09T09:14:33.123Z,962.97
2023-05-09T09:19:34.437Z,962.9
2023-05-09T09:24:36.502Z,962.83
2023-05-09T09:29:38.447Z,962.85
2023-05-09T09:34:40.568Z,962.8
2023-05-09T09:39:41.782Z,962.72
2023-05-09T09:44:43.642Z,962.64
2023-05-09T09:49:46.155Z,962.51
2023-05-09T09:54:47.477Z,962.46
2023-05-09T09:59:49.180Z,962.4
2023-05-09T10:04:50.527Z,962.3
2023-05-09T10:09:52.716Z,962.28
2023-05-09T10:14:54.532Z,962.29
2023-05-09T10:19:56.347Z,962.16
2023-05-09T10:24:57.932Z,962.03
2023-05-09T10:29:59.873Z,961.92
2023-05-09T10:35:01.535Z,961.88
2023-05-09T10:40:03.449Z,961.78
2023-05-09T10:45:05.240Z,961.75
2023-05-09T10:50:06.416Z,961.67
2023-05-09T10:55:07.954Z,961.61
2023-05-09T11:00:09.212Z,961.46
2023-05-09T11:05:10.662Z,961.35
2023-05-09T11:10:11.910Z,961.29
2023-05-09T11:15:14.128Z,961.14
2023-05-09T11:20:15.554Z,961.03
2023-05-09T11:25:17.714Z,960.95
2023-05-09T11:30:19.627Z,960.86
2023-05-09T11:35:21.561Z,960.79
2023-05-09T11:40:22.993Z,960.75
2023-05-09T11:45:24.476Z,960.66
2023-05-09T11:50:26.235Z,960.57
2023-05-09T11:55:27.674Z,960.54
2023-05-09T12:00:29.611Z,960.47
2023-05-09T12:05:31.403Z,960.39
2023-05-09T12:10:33.135Z,960.34
2023-05-09T12:15:34.316Z,960.17
2023-05-09T12:20:36.162Z,960.13
2023-05-09T12:25:38.264Z,960.02
2023-05-09T12:30:39.448Z,959.97
2023-05-09T12:35:40.863Z,959.81
2023-05-09T12:40:42.586Z,959.78
2023-05-09T12:45:44.337Z,959.78
2023-05-09T12:50:45.954Z,959.65
2023-05-09T12:55:48.057Z,959.56
2023-05-09T13:00:49.628Z,959.44
2023-05-09T13:05:51.638Z,959.35
2023-05-09T13:10:55.615Z,959.3
2023-05-09T13:15:55.824Z,959.26
2023-05-09T13:20:57.748Z,959.14
2023-05-09T13:25:59.729Z,959.06
2023-05-09T13:31:01.049Z,958.98
2023-05-09T13:36:02.823Z,958.91
2023-05-09T13:41:04.332Z,958.82
2023-05-09T13:46:06.284Z,958.7
2023-05-09T13:51:08.299Z,958.68
2023-05-09T13:56:09.898Z,958.68
2023-05-09T14:01:12.027Z,958.59
2023-05-09T14:06:15.422Z,958.57
2023-05-09T14:11:16.325Z,958.45
2023-05-09T14:16:16.654Z,958.42
2023-05-09T14:21:18.373Z,958.36
2023-05-09T14:26:20.297Z,958.31
2023-05-09T14:31:21.497Z,958.19
2023-05-09T14:36:23.266Z,958.09
2023-05-09T14:41:24.699Z,958.04
2023-05-09T14:46:26.611Z,957.94
2023-05-09T14:51:28.384Z,957.85
2023-05-09T14:56:30.528Z,957.8
2023-05-09T15:01:32.729Z,957.82
2023-05-09T15:06:33.823Z,957.69
2023-05-09T15:11:46.626Z,957.59
2023-05-09T15:16:37.431Z,957.59
2023-05-09T15:21:39.235Z,957.5
2023-05-09T15:26:41.248Z,957.44
2023-05-09T15:31:43.112Z,957.41
2023-05-09T15:36:44.906Z,957.34
2023-05-09T15:41:46.900Z,957.26
2023-05-09T15:46:48.583Z,957.29
2023-05-09T15:51:50.553Z,957.25
2023-05-09T15:56:52.041Z,957.13
2023-05-09T16:01:53.453Z,957.14
2023-05-09T16:06:55.478Z,957.01
2023-05-09T16:11:57.566Z,956.99
2023-05-09T16:16:59.087Z,956.89
2023-05-09T16:22:00.771Z,956.86
2023-05-09T16:27:02.346Z,956.79
2023-05-09T16:32:04.224Z,956.74
2023-05-09T16:37:05.430Z,956.7
2023-05-09T16:42:07.567Z,956.72
2023-05-09T16:47:08.833Z,956.66
2023-05-09T16:52:10.132Z,956.56
2023-05-09T16:57:11.780Z,956.45
2023-05-09T17:02:13.751Z,956.32
2023-05-09T17:07:15.450Z,956.21
2023-05-09T17:12:16.678Z,956.29
2023-05-09T17:17:17.968Z,956.28
2023-05-09T17:22:19.961Z,956.3
2023-05-09T17:27:21.832Z,956.2
2023-05-09T17:32:23.990Z,956.16
2023-05-09T17:37:26.110Z,956.15
2023-05-09T17:42:27.555Z,956.07
2023-05-09T17:47:29.074Z,956.03
2023-05-09T17:52:30.986Z,955.92
2023-05-09T17:57:32.679Z,955.91
2023-05-09T18:02:40.785Z,955.89
2023-05-09T18:07:42.555Z,955.85
2023-05-09T18:12:44.226Z,955.8
2023-05-09T18:17:45.816Z,955.77
2023-05-09T18:22:47.551Z,955.76
2023-05-09T18:27:49.148Z,955.73
2023-05-09T18:32:51.312Z,955.67
2023-05-09T18:37:53.016Z,955.63
2023-05-09T18:42:54.226Z,955.6
2023-05-09T18:47:55.999Z,955.55
2023-05-09T18:52:57.667Z,955.55
2023-05-09T18:57:59.753Z,955.55
2023-05-09T19:03:01.999Z,955.55
2023-05-09T19:08:03.220Z,955.55
2023-05-09T19:13:05.224Z,955.63
2023-05-09T19:18:07.175Z,955.62
2023-05-09T19:23:08.503Z,955.62
2023-05-09T19:28:10.550Z,955.69
2023-05-09T19:33:12.063Z,955.72
2023-05-09T19:38:13.883Z,955.78
2023-05-09T19:43:16.051Z,955.66
2023-05-09T19:48:18.222Z,955.65
2023-05-09T19:53:19.520Z,955.6
2023-05-09T19:58:20.975Z,955.7
2023-05-09T21:59:02.514Z,956.88
2023-05-09T22:19:08.799Z,956.91
2023-05-09T22:59:21.865Z,956.86
2023-05-09T23:04:23.301Z,956.8
2023-05-09T23:09:24.905Z,956.82
2023-05-09T23:14:27.025Z,956.74
2023-05-09T23:19:28.601Z,956.74
2023-05-09T23:24:29.800Z,956.7
2023-05-09T23:29:31.340Z,956.69
2023-05-09T23:34:33.178Z,956.67
2023-05-09T23:39:35.487Z,956.63
2023-05-09T23:44:37.108Z,956.6
2023-05-09T23:49:38.290Z,956.58
2023-05-09T23:54:40.223Z,956.56
2023-05-09T23:59:41.967Z,956.58
